createdAt,value
2022-12-22T00:00:33.164Z,17.00
2022-12-22T00:03:21.764Z,18.00
2022-12-22T00:06:10.687Z,17.27
2022-12-22T00:09:05.051Z,17.57
2022-12-22T00:11:54.257Z,17.30
2022-12-22T00:14:43.037Z,18.45
2022-12-22T00:17:47.875Z,17.27
2022-12-22T00:20:39.017Z,17.80
2022-12-22T00:23:30.398Z,16.75
2022-12-22T00:26:19.016Z,17.02
2022-12-22T00:29:07.557Z,16.67
2022-12-22T00:31:55.963Z,17.27
2022-12-22T00:34:47.778Z,17.13
2022-12-22T00:37:36.505Z,16.40
2022-12-22T00:40:38.473Z,17.13
2022-12-22T00:43:27.061Z,17.58
2022-12-22T00:46:20.083Z,17.83
2022-12-22T00:49:09.877Z,16.85
2022-12-22T00:51:58.684Z,17.67
2022-12-22T00:54:47.414Z,19.08
2022-12-22T00:57:44.141Z,17.70
2022-12-22T01:00:38.502Z,15.95
2022-12-22T01:03:30.832Z,15.95
2022-12-22T01:06:22.263Z,17.50
2022-12-22T01:09:10.248Z,17.92
2022-12-22T01:11:59.167Z,18.08
2022-12-22T01:14:45.725Z,16.75
2022-12-22T01:17:35.937Z,16.33
2022-12-22T01:20:23.464Z,18.43
2022-12-22T01:26:00.410Z,16.55
2022-12-22T01:28:49.047Z,17.67
2022-12-22T01:31:51.844Z,17.70
2022-12-22T01:34:38.722Z,16.90
2022-12-22T01:37:27.163Z,16.75
2022-12-22T01:40:15.328Z,17.40
2022-12-22T01:43:03.962Z,18.10
2022-12-22T01:45:56.243Z,17.87
2022-12-22T01:48:50.922Z,16.88
2022-12-22T01:51:45.491Z,17.52
2022-12-22T01:54:34.281Z,16.50
2022-12-22T01:57:23.937Z,17.02
2022-12-22T02:03:00.782Z,15.85
2022-12-22T02:06:01.293Z,17.23
2022-12-22T02:09:04.564Z,15.82
2022-12-22T02:12:22.893Z,17.17
2022-12-22T02:15:40.990Z,17.48
2022-12-22T02:19:32.097Z,17.02
2022-12-22T02:22:36.407Z,15.35
2022-12-22T02:25:42.121Z,15.48
2022-12-22T02:28:32.849Z,15.85
2022-12-22T02:31:21.546Z,14.80
2022-12-22T02:34:10.165Z,15.20
2022-12-22T02:37:44.183Z,15.45
2022-12-22T02:41:05.906Z,15.38
2022-12-22T02:44:51.533Z,16.98
2022-12-22T02:48:05.996Z,16.30
2022-12-22T02:51:16.701Z,17.13
2022-12-22T02:54:06.408Z,15.10
2022-12-22T02:56:55.152Z,16.45
2022-12-22T02:59:43.913Z,16.15
2022-12-22T03:02:33.252Z,16.52
2022-12-22T03:05:22.724Z,16.17
2022-12-22T03:08:09.169Z,15.65
2022-12-22T03:10:56.191Z,16.45
2022-12-22T03:13:44.686Z,14.55
2022-12-22T03:16:33.409Z,15.43
2022-12-22T03:19:22.327Z,14.65
2022-12-22T03:22:11.062Z,14.40
2022-12-22T03:24:59.663Z,13.52
2022-12-22T03:27:29.652Z,14.13
2022-12-22T03:29:59.686Z,13.65
2022-12-22T03:32:28.101Z,13.85
2022-12-22T03:34:56.475Z,13.93
2022-12-22T03:37:24.902Z,14.15
2022-12-22T03:39:53.434Z,14.02
2022-12-22T03:42:40.710Z,13.80
2022-12-22T03:45:30.045Z,13.85
2022-12-22T03:50:29.904Z,12.90
2022-12-22T03:52:59.985Z,13.23
2022-12-22T03:55:30.070Z,13.38
2022-12-22T03:58:00.214Z,13.55
2022-12-22T04:00:30.227Z,12.73
2022-12-22T04:03:00.505Z,14.68
2022-12-22T04:05:30.630Z,14.13
2022-12-22T04:08:00.657Z,12.95
2022-12-22T04:10:49.316Z,13.30
2022-12-22T04:13:16.664Z,12.55
2022-12-22T04:15:45.066Z,14.15
2022-12-22T04:18:13.541Z,13.02
2022-12-22T04:20:41.918Z,13.50
2022-12-22T04:23:10.452Z,14.20
2022-12-22T04:25:38.799Z,15.30
2022-12-22T04:28:07.212Z,13.68
2022-12-22T04:30:35.775Z,13.93
2022-12-22T04:33:03.034Z,14.55
2022-12-22T04:35:31.437Z,14.23
2022-12-22T04:37:59.841Z,14.18
2022-12-22T04:40:28.275Z,13.82
2022-12-22T04:42:56.689Z,13.13
2022-12-22T04:45:25.335Z,13.50
2022-12-22T04:47:53.522Z,13.75
2022-12-22T04:50:21.992Z,13.68
2022-12-22T04:52:50.437Z,13.68
2022-12-22T04:55:19.009Z,13.07
2022-12-22T04:57:47.313Z,14.57
2022-12-22T05:00:16.695Z,14.88
2022-12-22T05:02:44.342Z,13.63
2022-12-22T05:05:12.629Z,15.10
2022-12-22T05:07:40.945Z,15.40
2022-12-22T05:10:11.301Z,15.65
2022-12-22T05:12:56.457Z,14.30
2022-12-22T05:15:35.708Z,15.98
2022-12-22T05:18:05.882Z,14.10
2022-12-22T05:20:36.574Z,15.95
2022-12-22T05:23:06.569Z,15.70
2022-12-22T05:25:36.596Z,14.68
2022-12-22T05:28:04.540Z,17.55
2022-12-22T05:30:34.048Z,16.23
2022-12-22T05:33:01.234Z,17.38
2022-12-22T05:35:31.283Z,16.90
2022-12-22T05:38:01.293Z,17.08
2022-12-22T05:40:31.339Z,16.48
2022-12-22T05:43:01.421Z,17.25
2022-12-22T05:45:31.483Z,17.27
2022-12-22T05:48:01.553Z,17.00
2022-12-22T05:50:32.751Z,18.30
2022-12-22T05:53:02.071Z,16.98
2022-12-22T05:55:33.282Z,18.48
2022-12-22T05:58:03.219Z,18.90
2022-12-22T06:00:33.207Z,17.70
2022-12-22T06:03:03.456Z,17.33
2022-12-22T06:05:33.460Z,16.85
2022-12-22T06:08:03.669Z,17.00
2022-12-22T06:10:33.777Z,17.13
2022-12-22T06:13:03.793Z,17.90
2022-12-22T06:15:33.843Z,17.83
2022-12-22T06:18:04.050Z,18.25
2022-12-22T06:20:34.106Z,18.75
2022-12-22T06:23:04.171Z,18.10
2022-12-22T06:25:32.708Z,17.15
2022-12-22T06:28:01.408Z,17.77
2022-12-22T06:30:33.543Z,18.55
2022-12-22T06:33:02.054Z,18.15
2022-12-22T06:35:29.985Z,18.65
2022-12-22T06:37:58.270Z,17.23
2022-12-22T06:40:26.619Z,18.92
2022-12-22T06:43:10.898Z,19.15
2022-12-22T06:45:43.775Z,18.88
2022-12-22T06:48:13.625Z,17.75
2022-12-22T06:50:43.799Z,18.42
2022-12-22T06:53:14.221Z,18.70
2022-12-22T06:55:44.173Z,18.60
2022-12-22T06:58:13.861Z,19.83
2022-12-22T07:00:43.917Z,18.85
2022-12-22T07:03:14.126Z,19.83
2022-12-22T07:05:44.063Z,19.23
2022-12-22T07:08:13.883Z,17.52
2022-12-22T07:11:00.440Z,18.63
2022-12-22T07:13:35.589Z,18.80
2022-12-22T07:16:10.668Z,18.52
2022-12-22T07:18:42.881Z,20.92
2022-12-22T07:21:15.491Z,20.40
2022-12-22T07:23:45.267Z,19.98
2022-12-22T07:26:16.377Z,20.05
2022-12-22T07:28:43.529Z,20.65
2022-12-22T07:31:16.626Z,19.67
2022-12-22T07:33:46.817Z,22.95
2022-12-22T07:36:20.822Z,20.58
2022-12-22T07:38:52.378Z,21.80
2022-12-22T07:41:40.129Z,21.25
2022-12-22T07:44:08.806Z,20.80
2022-12-22T07:46:40.587Z,20.08
2022-12-22T07:49:31.389Z,19.15
2022-12-22T07:52:00.785Z,20.73
2022-12-22T07:54:34.092Z,20.80
2022-12-22T07:57:06.669Z,20.83
2022-12-22T07:59:36.706Z,21.50
2022-12-22T08:02:10.960Z,19.65
2022-12-22T08:04:41.205Z,21.45
2022-12-22T08:07:11.255Z,19.23
2022-12-22T08:09:41.300Z,20.40
2022-12-22T08:12:16.638Z,22.63
2022-12-22T08:14:46.724Z,19.55
2022-12-22T08:17:17.202Z,19.30
2022-12-22T08:19:48.813Z,20.02
2022-12-22T08:22:19.019Z,18.60
2022-12-22T08:24:49.606Z,20.67
2022-12-22T08:27:51.926Z,18.83
2022-12-22T08:30:22.043Z,18.17
2022-12-22T08:32:52.700Z,18.33
2022-12-22T08:35:23.258Z,19.20
2022-12-22T08:37:54.046Z,17.48
2022-12-22T08:40:32.936Z,19.80
2022-12-22T08:43:11.118Z,18.58
2022-12-22T08:45:43.071Z,15.93
2022-12-22T08:48:13.243Z,17.45
2022-12-22T08:50:43.479Z,18.02
2022-12-22T08:53:30.155Z,17.92
2022-12-22T08:56:03.882Z,16.70
2022-12-22T08:58:34.070Z,17.13
2022-12-22T09:01:04.407Z,17.63
2022-12-22T09:03:34.686Z,16.48
2022-12-22T09:06:05.146Z,15.70
2022-12-22T09:08:35.159Z,15.70
2022-12-22T09:11:05.774Z,16.05
2022-12-22T09:13:33.663Z,15.25
2022-12-22T09:16:08.212Z,16.60
2022-12-22T09:18:38.272Z,14.80
2022-12-22T09:21:08.400Z,18.23
2022-12-22T09:23:38.503Z,16.30
2022-12-22T09:26:16.567Z,16.30
2022-12-22T09:28:50.583Z,14.93
2022-12-22T09:31:20.660Z,15.32
2022-12-22T09:33:51.688Z,15.13
2022-12-22T09:36:27.836Z,15.30
2022-12-22T09:38:58.024Z,15.32
2022-12-22T09:41:43.751Z,13.88
2022-12-22T09:44:39.449Z,13.32
2022-12-22T09:47:37.904Z,13.90
2022-12-22T09:50:18.232Z,12.73
2022-12-22T09:52:56.228Z,13.95
2022-12-22T09:55:25.202Z,14.40
2022-12-22T09:57:56.018Z,13.65
2022-12-22T10:00:27.678Z,13.05
2022-12-22T10:04:00.960Z,12.98
2022-12-22T10:07:21.857Z,13.48
2022-12-22T10:09:52.366Z,12.43
2022-12-22T10:12:26.376Z,12.18
2022-12-22T10:14:56.541Z,12.68
2022-12-22T10:17:33.001Z,12.40
2022-12-22T10:20:28.415Z,12.15
2022-12-22T10:23:06.994Z,10.57
2022-12-22T10:29:16.979Z,11.38
2022-12-22T10:32:12.152Z,10.65
2022-12-22T10:35:07.184Z,10.82
2022-12-22T10:37:41.934Z,9.52
2022-12-22T10:40:22.218Z,10.38
2022-12-22T10:42:57.713Z,11.13
2022-12-22T10:45:28.316Z,10.35
2022-12-22T10:47:58.534Z,11.32
2022-12-22T10:50:25.975Z,11.43
2022-12-22T10:52:59.515Z,10.38
2022-12-22T10:55:30.720Z,10.20
2022-12-22T10:58:21.343Z,10.75
2022-12-22T11:01:05.741Z,10.48
2022-12-22T11:03:35.373Z,10.43
2022-12-22T11:06:13.786Z,11.52
2022-12-22T11:08:50.841Z,11.15
2022-12-22T11:11:59.654Z,11.50
2022-12-22T11:15:02.861Z,10.80
2022-12-22T11:18:24.191Z,10.95
2022-12-22T11:24:30.923Z,10.48
2022-12-22T11:27:44.040Z,10.88
2022-12-22T11:30:33.198Z,10.70
2022-12-22T11:33:40.268Z,10.48
2022-12-22T11:36:30.101Z,10.98
2022-12-22T11:39:20.563Z,10.02
2022-12-22T11:42:35.592Z,10.93
2022-12-22T11:45:42.774Z,10.30
2022-12-22T11:48:40.682Z,11.23
2022-12-22T11:56:15.219Z,10.43
2022-12-22T12:18:16.968Z,9.48
2022-12-22T12:21:28.501Z,9.90
2022-12-22T12:24:43.627Z,10.00
2022-12-22T12:28:14.744Z,8.55
2022-12-22T12:31:00.953Z,8.82
2022-12-22T12:33:52.697Z,9.63
2022-12-22T12:36:54.239Z,8.98
2022-12-22T12:39:59.420Z,10.05
2022-12-22T12:42:44.816Z,8.85
2022-12-22T12:45:49.040Z,9.05
2022-12-22T12:48:22.141Z,9.98
2022-12-22T12:50:53.791Z,8.50
2022-12-22T12:53:30.178Z,9.70
2022-12-22T12:56:09.359Z,10.30
2022-12-22T12:58:39.338Z,9.05
2022-12-22T13:01:32.237Z,9.32
2022-12-22T13:04:04.769Z,9.02
2022-12-22T13:06:51.689Z,9.18
2022-12-22T13:09:49.997Z,9.40
2022-12-22T13:12:53.265Z,9.20
2022-12-22T13:15:36.161Z,9.50
2022-12-22T13:18:23.979Z,10.35
2022-12-22T13:24:25.766Z,9.52
2022-12-22T13:27:10.384Z,8.70
2022-12-22T13:29:46.580Z,9.85
2022-12-22T13:35:46.598Z,8.05
2022-12-22T13:38:37.684Z,8.50
2022-12-22T13:41:27.715Z,7.75
2022-12-22T13:44:08.943Z,7.82
2022-12-22T13:46:40.182Z,8.40
2022-12-22T13:49:36.251Z,8.50
2022-12-22T13:52:18.581Z,8.30
2022-12-22T13:57:23.091Z,8.23
2022-12-22T13:59:54.895Z,9.00
2022-12-22T14:02:24.986Z,6.82
2022-12-22T14:05:13.969Z,9.27
2022-12-22T14:08:06.805Z,8.50
2022-12-22T14:10:45.252Z,8.93
2022-12-22T14:13:23.589Z,8.00
2022-12-22T14:16:07.958Z,8.40
2022-12-22T14:18:39.726Z,8.70
2022-12-22T14:21:12.704Z,8.43
2022-12-22T14:23:44.237Z,8.30
2022-12-22T14:26:29.404Z,7.63
2022-12-22T14:28:59.794Z,8.20
2022-12-22T14:31:29.520Z,9.30
2022-12-22T14:34:05.634Z,10.43
2022-12-22T14:36:41.584Z,9.90
2022-12-22T14:39:31.915Z,9.13
2022-12-22T14:42:16.388Z,10.00
2022-12-22T14:44:49.304Z,8.88
2022-12-22T14:47:27.587Z,9.25
2022-12-22T14:50:18.227Z,9.23
2022-12-22T14:53:00.361Z,9.60
2022-12-22T14:55:51.910Z,9.25
2022-12-22T14:58:34.916Z,8.45
2022-12-22T15:01:23.336Z,8.95
2022-12-22T15:04:20.427Z,8.48
2022-12-22T15:06:51.019Z,8.18
2022-12-22T15:09:39.732Z,7.38
2022-12-22T15:12:18.965Z,7.72
2022-12-22T15:14:49.448Z,5.88
2022-12-22T15:17:27.942Z,6.28
2022-12-22T15:20:00.169Z,5.85
2022-12-22T15:22:31.118Z,6.50
2022-12-22T15:25:01.124Z,6.43
2022-12-22T15:27:31.170Z,5.95
2022-12-22T15:30:01.160Z,7.63
2022-12-22T15:32:37.555Z,7.03
2022-12-22T15:35:32.933Z,7.18
2022-12-22T15:38:02.983Z,7.55
2022-12-22T15:40:32.976Z,7.60
2022-12-22T15:43:01.566Z,8.13
2022-12-22T15:45:31.007Z,7.53
2022-12-22T15:47:59.535Z,8.43
2022-12-22T15:50:39.122Z,8.20
2022-12-22T15:53:19.706Z,7.85
2022-12-22T15:55:58.497Z,9.23
2022-12-22T15:58:36.533Z,9.15
2022-12-22T16:01:05.315Z,8.95
2022-12-22T16:03:35.659Z,9.82
2022-12-22T16:06:09.029Z,10.55
2022-12-22T16:08:40.528Z,10.35
2022-12-22T16:11:10.658Z,11.05
2022-12-22T16:13:39.189Z,10.20
2022-12-22T16:16:08.632Z,11.27
2022-12-22T16:18:38.461Z,11.93
2022-12-22T16:21:17.922Z,11.93
2022-12-22T16:23:51.060Z,12.30
2022-12-22T16:26:21.253Z,13.40
2022-12-22T16:28:53.093Z,12.65
2022-12-22T16:31:25.594Z,13.32
2022-12-22T16:33:55.140Z,13.57
2022-12-22T16:36:22.875Z,12.52
2022-12-22T16:38:52.894Z,13.75
2022-12-22T16:41:26.076Z,13.48
2022-12-22T16:44:05.453Z,13.30
2022-12-22T16:46:41.675Z,14.55
2022-12-22T16:49:19.035Z,13.27
2022-12-22T16:51:55.106Z,12.60
2022-12-22T16:54:25.110Z,13.57
2022-12-22T16:56:55.182Z,13.20
2022-12-22T16:59:25.775Z,13.85
2022-12-22T17:01:58.465Z,13.80
2022-12-22T17:04:32.462Z,13.85
2022-12-22T17:07:02.935Z,14.20
2022-12-22T17:09:57.277Z,12.68
2022-12-22T17:12:35.075Z,13.63
2022-12-22T17:15:05.535Z,14.02
2022-12-22T17:17:41.708Z,13.15
2022-12-22T17:20:28.321Z,14.45
2022-12-22T17:23:03.781Z,13.90
2022-12-22T17:25:34.284Z,13.15
2022-12-22T17:28:04.499Z,13.57
2022-12-22T17:30:34.117Z,14.73
2022-12-22T17:33:03.832Z,13.95
2022-12-22T17:35:37.531Z,13.85
2022-12-22T17:38:06.390Z,14.98
2022-12-22T17:40:36.544Z,13.93
2022-12-22T17:43:04.655Z,15.18
2022-12-22T17:45:34.706Z,14.00
2022-12-22T17:48:04.732Z,13.68
2022-12-22T17:50:36.129Z,14.35
2022-12-22T17:53:17.986Z,15.80
2022-12-22T17:56:07.568Z,14.82
2022-12-22T17:58:38.108Z,15.60
2022-12-22T18:01:21.370Z,15.30
2022-12-22T18:03:52.087Z,17.80
2022-12-22T18:06:37.855Z,17.13
2022-12-22T18:09:10.576Z,17.13
2022-12-22T18:11:43.850Z,17.88
2022-12-22T18:14:18.401Z,17.40
2022-12-22T18:16:46.605Z,16.60
2022-12-22T18:19:16.698Z,17.13
2022-12-22T18:21:46.752Z,17.05
2022-12-22T18:24:19.519Z,17.50
2022-12-22T18:26:49.118Z,17.02
2022-12-22T18:29:19.462Z,17.60
2022-12-22T18:31:49.465Z,18.58
2022-12-22T18:34:19.501Z,17.85
2022-12-22T18:36:49.516Z,18.60
2022-12-22T18:39:20.279Z,19.15
2022-12-22T18:41:54.337Z,18.38
2022-12-22T18:44:24.843Z,18.00
2022-12-22T18:46:54.255Z,17.77
2022-12-22T18:49:22.535Z,18.23
2022-12-22T18:51:50.908Z,17.63
2022-12-22T18:54:33.278Z,18.10
2022-12-22T18:57:03.941Z,16.83
2022-12-22T18:59:33.970Z,16.05
2022-12-22T19:02:23.452Z,16.48
2022-12-22T19:04:54.614Z,16.45
2022-12-22T19:07:26.241Z,14.65
2022-12-22T19:09:55.048Z,15.25
2022-12-22T19:12:25.335Z,16.35
2022-12-22T19:15:06.124Z,14.52
2022-12-22T19:17:36.224Z,17.02
2022-12-22T19:20:16.096Z,16.73
2022-12-22T19:22:46.396Z,15.60
2022-12-22T19:25:27.211Z,16.17
2022-12-22T19:28:30.474Z,14.95
2022-12-22T19:31:01.084Z,13.30
2022-12-22T19:33:44.496Z,14.15
2022-12-22T19:36:27.317Z,13.95
2022-12-22T19:39:06.088Z,14.45
2022-12-22T19:41:52.615Z,11.50
2022-12-22T19:44:30.941Z,13.75
2022-12-22T19:47:02.836Z,13.02
2022-12-22T19:49:32.869Z,13.20
2022-12-22T19:52:02.874Z,13.90
2022-12-22T19:54:32.585Z,11.38
2022-12-22T19:57:00.592Z,12.82
2022-12-22T19:59:38.736Z,11.15
2022-12-22T20:02:33.465Z,11.50
2022-12-22T20:05:06.691Z,10.82
2022-12-22T20:07:39.045Z,11.98
2022-12-22T20:10:09.262Z,12.00
2022-12-22T20:12:45.242Z,13.27
2022-12-22T20:15:19.827Z,12.55
2022-12-22T20:17:54.211Z,13.35
2022-12-22T20:20:33.763Z,12.48
2022-12-22T20:23:15.133Z,14.57
2022-12-22T20:26:02.719Z,13.60
2022-12-22T20:28:40.049Z,13.23
2022-12-22T20:31:14.351Z,14.98
2022-12-22T20:33:42.707Z,14.18
2022-12-22T20:36:31.991Z,13.07
2022-12-22T20:39:02.084Z,13.98
2022-12-22T20:41:30.841Z,13.80
2022-12-22T20:43:59.238Z,12.90
2022-12-22T20:46:30.296Z,12.90
2022-12-22T20:49:04.499Z,13.52
2022-12-22T20:51:34.185Z,12.98
2022-12-22T20:54:03.569Z,14.68
2022-12-22T20:56:49.040Z,14.85
2022-12-22T20:59:23.826Z,14.10
2022-12-22T21:01:53.190Z,15.80
2022-12-22T21:04:22.909Z,13.75
2022-12-22T21:06:57.576Z,13.13
2022-12-22T21:09:28.106Z,14.57
2022-12-22T21:11:58.174Z,15.35
2022-12-22T21:14:28.205Z,16.17
2022-12-22T21:16:58.337Z,16.05
2022-12-22T21:19:28.705Z,14.40
2022-12-22T21:21:58.725Z,15.48
2022-12-22T21:24:28.725Z,16.30
2022-12-22T21:26:58.965Z,16.13
2022-12-22T21:29:29.786Z,16.88
2022-12-22T21:31:59.891Z,18.02
2022-12-22T21:34:29.948Z,17.25
2022-12-22T21:37:03.251Z,18.75
2022-12-22T21:39:44.748Z,18.10
2022-12-22T21:42:20.083Z,19.70
2022-12-22T21:44:51.580Z,17.67
2022-12-22T21:47:21.235Z,17.75
2022-12-22T21:49:49.071Z,18.00
2022-12-22T21:52:18.766Z,18.92
2022-12-22T21:54:48.661Z,21.05
2022-12-22T21:57:18.415Z,19.98
2022-12-22T21:59:48.252Z,17.30
2022-12-22T22:02:19.277Z,18.17
2022-12-22T22:04:53.733Z,18.02
2022-12-22T22:07:24.824Z,17.50
2022-12-22T22:09:54.714Z,17.25
2022-12-22T22:12:33.396Z,17.50
2022-12-22T22:15:01.958Z,19.80
2022-12-22T22:17:31.429Z,18.45
2022-12-22T22:20:01.140Z,20.73
2022-12-22T22:22:31.220Z,20.27
2022-12-22T22:25:01.049Z,21.70
2022-12-22T22:27:30.895Z,20.65
2022-12-22T22:30:00.717Z,20.50
2022-12-22T22:32:30.533Z,18.17
2022-12-22T22:35:00.352Z,18.95
2022-12-22T22:37:30.143Z,18.63
2022-12-22T22:39:59.850Z,19.63
2022-12-22T22:42:29.480Z,18.00
2022-12-22T22:44:59.296Z,18.25
2022-12-22T22:47:28.985Z,16.55
2022-12-22T22:49:58.953Z,17.48
2022-12-22T22:52:28.546Z,16.65
2022-12-22T22:54:58.110Z,19.08
2022-12-22T22:57:28.263Z,17.85
2022-12-22T22:59:56.419Z,17.42
2022-12-22T23:02:25.419Z,18.63
2022-12-22T23:04:53.625Z,17.13
2022-12-22T23:07:21.996Z,17.75
2022-12-22T23:09:50.687Z,16.10
2022-12-22T23:12:19.138Z,18.27
2022-12-22T23:14:47.328Z,17.25
2022-12-22T23:17:15.697Z,16.65
2022-12-22T23:19:44.147Z,17.33
2022-12-22T23:22:12.711Z,16.15
2022-12-22T23:24:40.873Z,17.70
2022-12-22T23:27:09.416Z,16.13
2022-12-22T23:29:38.705Z,17.27
2022-12-22T23:32:06.860Z,16.13
2022-12-22T23:34:35.273Z,14.77
2022-12-22T23:37:04.698Z,15.88
2022-12-22T23:39:34.912Z,14.68
2022-12-22T23:42:03.048Z,15.02
2022-12-22T23:44:31.494Z,14.85
2022-12-22T23:46:59.891Z,14.23
2022-12-22T23:49:28.256Z,16.38
2022-12-22T23:51:56.672Z,16.10
2022-12-22T23:54:25.200Z,16.10
2022-12-22T23:56:53.530Z,17.30
2022-12-22T23:59:22.158Z,15.85
